createdAt,value
2019-03-08T05:00:24.133Z,8.10
2019-03-08T05:02:47.958Z,8.10
2019-03-08T05:05:14.299Z,8.10
2019-03-08T05:07:38.882Z,8.10
2019-03-08T05:10:04.049Z,8.10
2019-03-08T05:12:27.632Z,8.10
2019-03-08T05:14:51.945Z,8.10
2019-03-08T06:02:40.253Z,7.70
2019-03-08T06:05:02.990Z,7.70
2019-03-08T06:07:47.043Z,7.70
2019-03-08T06:13:22.836Z,7.70
2019-03-08T07:01:36.863Z,7.80
2019-03-08T07:04:02.043Z,7.90
2019-03-08T07:06:24.853Z,8.00
2019-03-08T07:08:49.224Z,8.10
2019-03-08T07:11:12.084Z,8.20
2019-03-08T07:13:34.837Z,8.40
2019-03-08T08:01:49.022Z,8.90
2019-03-08T08:04:40.521Z,8.80
2019-03-08T08:07:11.596Z,8.70
2019-03-08T08:10:13.321Z,8.90
2019-03-08T08:13:03.575Z,9.00
2019-03-08T09:04:05.627Z,12.20
2019-03-08T09:06:49.437Z,12.10
2019-03-08T09:09:31.238Z,12.10
2019-03-08T09:12:19.460Z,12.00
2019-03-08T09:14:49.204Z,12.00
2019-03-08T11:02:12.275Z,13.50
2019-03-08T11:04:42.975Z,13.40
2019-03-08T11:07:31.883Z,13.60
2019-03-08T11:10:26.690Z,15.20
2019-03-08T11:13:24.527Z,16.80
2019-03-08T13:02:08.511Z,16.30
2019-03-08T13:05:03.030Z,17.50
2019-03-08T13:07:57.862Z,17.70
2019-03-08T13:10:33.617Z,18.90
2019-03-08T13:13:08.647Z,20.20
2019-03-08T14:05:42.005Z,15.10
2019-03-08T14:08:20.249Z,14.90
2019-03-08T14:10:55.395Z,14.80
2019-03-08T16:00:24.156Z,13.00
2019-03-08T16:02:47.014Z,13.20
2019-03-08T16:05:10.156Z,13.70
2019-03-08T16:07:45.005Z,14.90
2019-03-08T16:10:20.108Z,15.40
2019-03-08T16:12:55.901Z,14.70
2019-03-08T17:01:10.798Z,11.90
2019-03-08T17:03:44.575Z,11.70
2019-03-08T17:06:27.149Z,11.60
2019-03-08T17:18:15.419Z,10.90
2019-03-08T17:21:09.193Z,10.80
2019-03-08T17:23:43.248Z,10.70
2019-03-08T17:26:35.649Z,10.60
2019-03-08T17:32:18.738Z,10.40
2019-03-08T17:35:24.306Z,10.30
2019-03-08T17:37:55.727Z,10.20
2019-03-08T17:40:28.138Z,10.10
2019-03-08T17:43:01.910Z,10.10
2019-03-08T17:46:02.349Z,9.90
2019-03-08T17:48:49.895Z,9.90
2019-03-08T17:51:30.412Z,9.70
2019-03-08T17:54:29.472Z,9.60
2019-03-08T17:57:21.305Z,9.50
2019-03-08T18:00:07.723Z,9.40
2019-03-08T18:02:54.452Z,9.30
2019-03-08T18:05:35.382Z,9.20
2019-03-08T18:08:25.890Z,9.10
2019-03-08T18:11:10.138Z,9.00
2019-03-08T18:13:51.301Z,9.00
2019-03-08T20:06:47.874Z,6.70
2019-03-08T20:09:30.157Z,6.60
2019-03-08T20:12:18.142Z,6.60
2019-03-08T20:14:59.234Z,6.60
2019-03-08T21:08:40.131Z,6.50
2019-03-08T21:12:01.421Z,6.50
2019-03-08T21:14:32.154Z,6.50
